Flight Track Log - Related Links

Times and Time Zones

All times are in EST time to prevent confusion due to time zone crossing. See the SWA796 flight status page for this flight to view local times or setup timezone preferences in your user account.

Time Position Orientation Groundspeed Altitude Reporting Facility
EST Latitude Longitude Course Direction KTS MPH feet Rate Location/Type
Sat 08:24:03 AM 39.1333 -76.6333 131° Southeast 174 200 2,900  Level Potomac TRACON
Sat 08:25:03 AM 39.1000 -76.5833 131° Southeast 234 269 6,200 3,471 Climbing Potomac TRACON
Sat 08:25:45 AM 39.0500 -76.5500 153° Southeast 272 313 8,800 4,063 Climbing Potomac TRACON
Sat 08:26:39 AM 38.9833 -76.5167 159° South 299 344 12,700 1,584 Climbing Potomac TRACON
Sat 08:29:02 AM 38.8008 -76.5853 196° South 314 361 14,000 380 Climbing Washington Center
Sat 08:30:04 AM 38.7256 -76.6294 205° Southwest 309 356 14,000  Level Washington Center
Sat 08:31:04 AM 38.6478 -76.6736 204° Southwest 309 356 14,000  Level Washington Center
Sat 08:32:02 AM 38.5725 -76.7203 206° Southwest 309 356 14,000  Level Washington Center
Sat 08:33:02 AM 38.4744 -76.7214 181° South 301 346 14,000  Level Washington Center
Sat 08:34:03 AM 38.3892 -76.7069 172° South 306 352 14,000  Level Washington Center
Sat 08:35:03 AM 38.3058 -76.6925 172° South 306 352 14,000  Level Washington Center
Sat 08:36:03 AM 38.2308 -76.6808 173° South 306 352 14,000  Level Washington Center
Sat 08:37:02 AM 38.1433 -76.6717 175° South 312 359 14,000  Level Washington Center
Sat 08:38:04 AM 38.0578 -76.6678 178° South 312 359 14,000  Level Washington Center
Sat 08:39:01 AM 37.9703 -76.6717 182° South 312 359 14,000  Level Washington Center
Sat 08:40:02 AM 37.8847 -76.6811 185° South 312 359 14,000  Level Washington Center
Sat 08:41:03 AM 37.8058 -76.6300 153° Southeast 299 344 14,000 -414 Level Washington Center
Sat 08:41:29 AM 37.7728 -76.5847 133° Southeast 348 400 13,400 -1,000 Descending Washington Center
Sat 08:42:03 AM 37.7439 -76.5397 129° Southeast 307 353 13,000 -873 Descending Washington Center
Sat 08:42:24 AM 37.7150 -76.5053 137° Southeast 340 391 12,600 -984 Descending Washington Center
Sat 08:43:04 AM 37.6800 -76.4497 129° Southeast 325 374 12,000 -968 Descending Washington Center
Sat 08:43:26 AM 37.6531 -76.4156 135° Southeast 337 388 11,600 -1,119 Descending Washington Center
Sat 08:44:03 AM 37.6181 -76.3653 131° Southeast 331 381 10,900 -1,377 Descending Washington Center
Sat 08:44:27 AM 37.5889 -76.3386 144° Southeast 317 365 10,200 -1,180 Descending Washington Center
Sat 08:45:04 AM 37.5475 -76.3094 151° Southeast 317 365 9,700 -1,138 Descending Washington Center
Sat 08:45:25 AM 37.5100 -76.2961 164° South 277 319 9,100 -1,138 Descending Washington Center
Sat 08:46:02 AM 37.4747 -76.2747 154° Southeast 289 333 8,600 -1,068 Descending Washington Center
Sat 08:46:38 AM 37.4331 -76.2536 158° South 263 303 7,800 -1,180 Descending Washington Center
Sat 08:47:03 AM 37.4103 -76.2403 155° Southeast 270 311 7,400 -1,082 Descending Washington Center
Sat 08:47:39 AM 37.3664 -76.2217 161° South 254 292 6,700 -885 Descending Washington Center
Sat 08:48:04 AM 37.3436 -76.2058 151° Southeast 265 305 6,500 -971 Descending Washington Center
Sat 08:48:47 AM 37.2875 -76.1792 159° South 261 300 5,600 -1,017 Descending Washington Center
Sat 08:49:03 AM 37.2769 -76.1714 150° Southeast 260 299 5,500 -1,091 Descending Washington Center
Sat 08:50:04 AM 37.2125 -76.1394 158° South 260 299 4,200 -1,418 Descending Washington Center
Sat 08:50:53 AM 37.1481 -76.1078 159° South 248 285 2,900 -1,345 Descending Washington Center
Sat 08:51:02 AM 37.1481 -76.1053 90° East 249 287 2,900 -885 Level Washington Center
Sat 08:51:54 AM 37.0856 -76.0761 160° South 242 278 2,000 -505 Descending Washington Center
Sat 08:52:49 AM 37.0311 -76.0967 197° South 235 270 2,000 -197 Level Washington Center
Sat 08:53:56 AM 36.9747 -76.1300 205° Southwest 173 199 1,600 -541 Descending Washington Center
Sat 08:55:02 AM 36.9328 -76.1661 215° Southwest 145 167 800 -727 Descending Washington Center

Login

Don't have an account? Register now (free) for customized features, flight alerts, and more!